Terminal Aerodrome Forecast
Issued by NWS Missoula, MT

Home | Current Version | Previous Version | Text Only | Print | Product List | Glossary On
Versions: 1 2 3 4 5 6 7 8 9 10 11 12 13 14 15 16 17 18 19 20
000
FTUS45 KMSO 311236 AAB
TAFMSO
TAF AMD
KMSO 311236Z 3113/0112 00000KT 4SM BR FEW003 FEW150
      TEMPO 3113/3115 1SM BR
     FM311600 29004KT P6SM SCT150=

USA.gov is the U.S. government's official web portal to all federal, state and local government web resources and services.